sensor_id;sensor_type;location;lat;lon;timestamp;pressure;altitude;pressure_sealevel;temperature;humidity
73824;BME280;62154;54.914;73.444;2022-11-20T00:01:34;101211.50;;;-17.35;84.49
73824;BME280;62154;54.914;73.444;2022-11-20T00:04:01;101205.38;;;-17.38;84.53
73824;BME280;62154;54.914;73.444;2022-11-20T00:06:29;101209.97;;;-17.51;84.34
73824;BME280;62154;54.914;73.444;2022-11-20T00:08:58;101212.59;;;-17.50;84.58
73824;BME280;62154;54.914;73.444;2022-11-20T00:11:28;101185.44;;;-17.66;84.26
73824;BME280;62154;54.914;73.444;2022-11-20T00:13:59;101215.38;;;-17.58;84.64
73824;BME280;62154;54.914;73.444;2022-11-20T00:16:28;101109.38;;;-18.20;84.63
73824;BME280;62154;54.914;73.444;2022-11-20T00:18:56;101218.03;;;-17.61;84.64
73824;BME280;62154;54.914;73.444;2022-11-20T00:21:27;101214.53;;;-17.61;84.58
73824;BME280;62154;54.914;73.444;2022-11-20T00:24:00;101211.91;;;-17.66;84.90
73824;BME280;62154;54.914;73.444;2022-11-20T00:26:28;101215.38;;;-17.61;84.79
73824;BME280;62154;54.914;73.444;2022-11-20T00:28:58;101194.28;;;-17.68;84.90
73824;BME280;62154;54.914;73.444;2022-11-20T00:31:26;101215.44;;;-17.64;84.68
73824;BME280;62154;54.914;73.444;2022-11-20T00:33:54;101119.88;;;-18.11;84.62
73824;BME280;62154;54.914;73.444;2022-11-20T00:36:26;101199.66;;;-17.72;84.73
73824;BME280;62154;54.914;73.444;2022-11-20T00:38:59;101198.69;;;-17.66;84.62
73824;BME280;62154;54.914;73.444;2022-11-20T00:41:30;101214.56;;;-17.66;84.71
73824;BME280;62154;54.914;73.444;2022-11-20T00:43:57;101208.31;;;-17.59;84.96
73824;BME280;62154;54.914;73.444;2022-11-20T00:46:26;101204.72;;;-17.56;85.13
73824;BME280;62154;54.914;73.444;2022-11-20T00:48:54;101189.78;;;-17.60;84.84
73824;BME280;62154;54.914;73.444;2022-11-20T00:51:24;101202.94;;;-17.56;84.93
73824;BME280;62154;54.914;73.444;2022-11-20T00:53:58;101121.53;;;-18.05;85.15
73824;BME280;62154;54.914;73.444;2022-11-20T00:56:26;101141.72;;;-17.95;84.78
73824;BME280;62154;54.914;73.444;2022-11-20T00:58:59;101129.47;;;-18.03;84.67
73824;BME280;62154;54.914;73.444;2022-11-20T01:01:27;101204.78;;;-17.61;85.07
73824;BME280;62154;54.914;73.444;2022-11-20T01:03:59;101196.00;;;-17.63;84.95
73824;BME280;62154;54.914;73.444;2022-11-20T01:06:37;101218.81;;;-17.52;84.96
73824;BME280;62154;54.914;73.444;2022-11-20T01:09:11;101196.00;;;-17.63;85.10
73824;BME280;62154;54.914;73.444;2022-11-20T01:11:42;101219.66;;;-17.49;84.88
73824;BME280;62154;54.914;73.444;2022-11-20T01:14:19;101216.97;;;-17.47;84.60
73824;BME280;62154;54.914;73.444;2022-11-20T01:16:49;101188.94;;;-17.64;84.25
73824;BME280;62154;54.914;73.444;2022-11-20T01:19:19;101211.72;;;-17.50;84.54
73824;BME280;62154;54.914;73.444;2022-11-20T01:21:49;101119.81;;;-18.08;84.68
73824;BME280;62154;54.914;73.444;2022-11-20T01:24:19;101202.88;;;-17.49;84.38
73824;BME280;62154;54.914;73.444;2022-11-20T01:26:49;101110.91;;;-18.00;84.26
73824;BME280;62154;54.914;73.444;2022-11-20T01:29:21;101112.66;;;-18.01;84.24
73824;BME280;62154;54.914;73.444;2022-11-20T01:31:49;101209.88;;;-17.45;84.69
73824;BME280;62154;54.914;73.444;2022-11-20T01:34:27;101189.69;;;-17.56;84.97
73824;BME280;62154;54.914;73.444;2022-11-20T01:36:55;101195.78;;;-17.47;84.53
73824;BME280;62154;54.914;73.444;2022-11-20T01:39:26;101198.41;;;-17.46;84.26
73824;BME280;62154;54.914;73.444;2022-11-20T01:41:54;101097.69;;;-18.02;84.11
73824;BME280;62154;54.914;73.444;2022-11-20T01:44:52;101220.47;;;-17.45;84.39
73824;BME280;62154;54.914;73.444;2022-11-20T01:47:39;101115.31;;;-18.01;84.24
73824;BME280;62154;54.914;73.444;2022-11-20T01:50:17;101126.63;;;-17.91;84.44
73824;BME280;62154;54.914;73.444;2022-11-20T01:53:03;101205.50;;;-17.49;84.05
73824;BME280;62154;54.914;73.444;2022-11-20T01:55:35;101211.63;;;-17.44;84.14
73824;BME280;62154;54.914;73.444;2022-11-20T01:58:03;101199.34;;;-17.50;83.97
73824;BME280;62154;54.914;73.444;2022-11-20T02:00:31;101196.69;;;-17.50;83.79
73824;BME280;62154;54.914;73.444;2022-11-20T02:03:05;101210.78;;;-17.48;83.94
73824;BME280;62154;54.914;73.444;2022-11-20T02:05:38;101194.88;;;-17.48;83.97
73824;BME280;62154;54.914;73.444;2022-11-20T02:08:06;101096.06;;;-18.14;83.57
73824;BME280;62154;54.914;73.444;2022-11-20T02:10:39;101101.38;;;-18.12;83.48
73824;BME280;62154;54.914;73.444;2022-11-20T02:13:06;101129.47;;;-18.03;83.90
73824;BME280;62154;54.914;73.444;2022-11-20T02:16:03;101189.91;;;-17.68;83.86
73824;BME280;62154;54.914;73.444;2022-11-20T02:18:31;101087.44;;;-18.27;83.32
73824;BME280;62154;54.914;73.444;2022-11-20T02:21:06;101119.84;;;-18.09;83.58
73824;BME280;62154;54.914;73.444;2022-11-20T02:26:26;101112.09;;;-18.25;83.00
73824;BME280;62154;54.914;73.444;2022-11-20T02:28:54;101225.31;;;-17.77;83.39
73824;BME280;62154;54.914;73.444;2022-11-20T02:31:25;101179.59;;;-17.91;83.27
73824;BME280;62154;54.914;73.444;2022-11-20T02:33:56;101132.44;;;-18.28;83.19
73824;BME280;62154;54.914;73.444;2022-11-20T02:36:27;101177.97;;;-18.01;83.49
73824;BME280;62154;54.914;73.444;2022-11-20T02:38:55;101132.44;;;-18.28;83.21
73824;BME280;62154;54.914;73.444;2022-11-20T02:41:36;101201.63;;;-17.89;82.95
73824;BME280;62154;54.914;73.444;2022-11-20T02:44:14;101206.91;;;-17.88;83.00
73824;BME280;62154;54.914;73.444;2022-11-20T02:46:46;101114.09;;;-18.42;83.20
73824;BME280;62154;54.914;73.444;2022-11-20T02:49:13;101209.59;;;-17.89;82.87
73824;BME280;62154;54.914;73.444;2022-11-20T02:51:41;101214.03;;;-17.93;82.62
73824;BME280;62154;54.914;73.444;2022-11-20T02:54:10;101207.00;;;-17.94;82.82
73824;BME280;62154;54.914;73.444;2022-11-20T02:56:40;101210.53;;;-17.95;82.78
73824;BME280;62154;54.914;73.444;2022-11-20T02:59:18;101195.63;;;-18.00;82.68
73824;BME280;62154;54.914;73.444;2022-11-20T03:01:45;101203.59;;;-18.02;82.76
73824;BME280;62154;54.914;73.444;2022-11-20T03:04:22;101196.56;;;-18.06;82.72
73824;BME280;62154;54.914;73.444;2022-11-20T03:06:50;101196.56;;;-18.06;82.48
73824;BME280;62154;54.914;73.444;2022-11-20T03:09:17;101210.75;;;-18.10;82.84
73824;BME280;62154;54.914;73.444;2022-11-20T03:11:54;101207.16;;;-18.06;82.62
73824;BME280;62154;54.914;73.444;2022-11-20T03:14:21;101212.41;;;-18.01;82.77
73824;BME280;62154;54.914;73.444;2022-11-20T03:16:48;101205.31;;;-17.98;82.95
73824;BME280;62154;54.914;73.444;2022-11-20T03:19:16;101204.38;;;-17.94;82.93
73824;BME280;62154;54.914;73.444;2022-11-20T03:21:43;101165.81;;;-18.16;82.58
73824;BME280;62154;54.914;73.444;2022-11-20T03:24:11;101184.13;;;-18.01;82.58
73824;BME280;62154;54.914;73.444;2022-11-20T03:26:39;101198.22;;;-17.96;82.39
73824;BME280;62154;54.914;73.444;2022-11-20T03:29:06;101110.53;;;-18.40;82.58
73824;BME280;62154;54.914;73.444;2022-11-20T03:31:38;101209.47;;;-17.81;82.17
73824;BME280;62154;54.914;73.444;2022-11-20T03:34:10;101203.38;;;-17.86;82.16
73824;BME280;62154;54.914;73.444;2022-11-20T03:36:40;101114.00;;;-18.36;82.20
73824;BME280;62154;54.914;73.444;2022-11-20T03:39:09;101211.16;;;-17.74;82.54
73824;BME280;62154;54.914;73.444;2022-11-20T03:41:38;101210.22;;;-17.70;82.20
73824;BME280;62154;54.914;73.444;2022-11-20T03:44:07;101200.50;;;-17.71;82.11
73824;BME280;62154;54.914;73.444;2022-11-20T03:46:35;101091.97;;;-18.35;81.93
73824;BME280;62154;54.914;73.444;2022-11-20T03:49:03;101197.72;;;-17.62;82.37
73824;BME280;62154;54.914;73.444;2022-11-20T03:51:40;101194.19;;;-17.61;82.46
73824;BME280;62154;54.914;73.444;2022-11-20T03:54:08;101123.22;;;-17.98;81.95
73824;BME280;62154;54.914;73.444;2022-11-20T03:56:37;101173.00;;;-17.61;81.99
73824;BME280;62154;54.914;73.444;2022-11-20T03:59:06;101094.19;;;-18.04;82.04
73824;BME280;62154;54.914;73.444;2022-11-20T04:01:35;101193.84;;;-17.36;82.45
73824;BME280;62154;54.914;73.444;2022-11-20T04:04:05;101196.47;;;-17.34;82.11
73824;BME280;62154;54.914;73.444;2022-11-20T04:06:37;101198.09;;;-17.24;82.39
73824;BME280;62154;54.914;73.444;2022-11-20T04:09:05;101102.50;;;-17.71;81.75
73824;BME280;62154;54.914;73.444;2022-11-20T04:11:36;101193.44;;;-17.08;82.25
73824;BME280;62154;54.914;73.444;2022-11-20T04:14:06;101184.50;;;-17.04;81.85
73824;BME280;62154;54.914;73.444;2022-11-20T04:16:35;101121.50;;;-17.43;81.86
73824;BME280;62154;54.914;73.444;2022-11-20T04:19:10;101180.94;;;-17.01;81.70
73824;BME280;62154;54.914;73.444;2022-11-20T04:21:38;101095.09;;;-17.47;81.55
73824;BME280;62154;54.914;73.444;2022-11-20T04:24:08;101102.84;;;-17.36;81.57
73824;BME280;62154;54.914;73.444;2022-11-20T04:26:40;101196.34;;;-16.74;81.76
73824;BME280;62154;54.914;73.444;2022-11-20T04:29:10;101191.91;;;-16.71;81.81
73824;BME280;62154;54.914;73.444;2022-11-20T04:31:38;101197.03;;;-16.62;81.65
73824;BME280;62154;54.914;73.444;2022-11-20T04:34:06;101175.00;;;-16.66;81.61
73824;BME280;62154;54.914;73.444;2022-11-20T04:36:34;101194.97;;;-16.45;81.55
73824;BME280;62154;54.914;73.444;2022-11-20T04:39:04;101191.31;;;-16.39;81.49
73824;BME280;62154;54.914;73.444;2022-11-20T04:41:35;101185.84;;;-16.30;81.54
73824;BME280;62154;54.914;73.444;2022-11-20T04:44:07;101175.03;;;-16.20;81.46
73824;BME280;62154;54.914;73.444;2022-11-20T04:46:39;101189.88;;;-16.10;81.34
73824;BME280;62154;54.914;73.444;2022-11-20T04:49:07;101165.94;;;-16.09;81.79
73824;BME280;62154;54.914;73.444;2022-11-20T04:51:35;101089.69;;;-16.46;81.58
73824;BME280;62154;54.914;73.444;2022-11-20T04:54:02;101181.34;;;-15.82;81.72
73824;BME280;62154;54.914;73.444;2022-11-20T04:56:35;101186.47;;;-15.75;81.37
73824;BME280;62154;54.914;73.444;2022-11-20T04:59:12;101155.59;;;-15.80;80.75
73824;BME280;62154;54.914;73.444;2022-11-20T05:01:49;101073.16;;;-16.16;80.49
73824;BME280;62154;54.914;73.444;2022-11-20T05:04:17;101171.75;;;-15.49;80.97
73824;BME280;62154;54.914;73.444;2022-11-20T05:06:49;101103.31;;;-15.80;80.84
73824;BME280;62154;54.914;73.444;2022-11-20T05:09:22;101080.38;;;-15.82;80.38
73824;BME280;62154;54.914;73.444;2022-11-20T05:11:49;101181.75;;;-15.22;80.51
73824;BME280;62154;54.914;73.444;2022-11-20T05:14:16;101156.19;;;-15.28;80.29
73824;BME280;62154;54.914;73.444;2022-11-20T05:16:43;101167.41;;;-15.15;80.58
73824;BME280;62154;54.914;73.444;2022-11-20T05:19:11;101180.22;;;-14.95;80.25
73824;BME280;62154;54.914;73.444;2022-11-20T05:21:48;101180.09;;;-14.89;79.75
73824;BME280;62154;54.914;73.444;2022-11-20T05:24:16;101180.84;;;-14.84;80.24
73824;BME280;62154;54.914;73.444;2022-11-20T05:26:43;101184.81;;;-14.66;79.93
73824;BME280;62154;54.914;73.444;2022-11-20T05:29:11;101142.72;;;-14.84;79.49
73824;BME280;62154;54.914;73.444;2022-11-20T05:31:39;101181.88;;;-14.56;79.49
73824;BME280;62154;54.914;73.444;2022-11-20T05:34:07;101097.06;;;-15.03;79.66
73824;BME280;62154;54.914;73.444;2022-11-20T05:36:34;101158.84;;;-14.57;79.78
73824;BME280;62154;54.914;73.444;2022-11-20T05:39:07;101172.66;;;-14.43;79.26
73824;BME280;62154;54.914;73.444;2022-11-20T05:41:35;101185.75;;;-14.35;79.59
73824;BME280;62154;54.914;73.444;2022-11-20T05:44:02;101156.56;;;-14.38;79.26
73824;BME280;62154;54.914;73.444;2022-11-20T05:46:29;101071.34;;;-14.70;78.61
73824;BME280;62154;54.914;73.444;2022-11-20T05:48:57;101159.50;;;-14.16;78.57
73824;BME280;62154;54.914;73.444;2022-11-20T05:51:25;101158.50;;;-14.12;78.27
73824;BME280;62154;54.914;73.444;2022-11-20T05:54:00;101155.75;;;-14.09;78.35
73824;BME280;62154;54.914;73.444;2022-11-20T05:56:27;101162.81;;;-14.08;77.97
73824;BME280;62154;54.914;73.444;2022-11-20T05:58:56;101095.16;;;-14.34;78.04
73824;BME280;62154;54.914;73.444;2022-11-20T06:01:25;101069.84;;;-14.49;77.67
73824;BME280;62154;54.914;73.444;2022-11-20T06:03:53;101038.31;;;-14.63;77.34
73824;BME280;62154;54.914;73.444;2022-11-20T06:06:21;101141.47;;;-14.06;77.07
73824;BME280;62154;54.914;73.444;2022-11-20T06:08:49;101136.91;;;-14.03;77.17
73824;BME280;62154;54.914;73.444;2022-11-20T06:11:16;101150.97;;;-13.98;77.30
73824;BME280;62154;54.914;73.444;2022-11-20T06:13:52;101139.47;;;-14.00;77.40
73824;BME280;62154;54.914;73.444;2022-11-20T06:16:19;101093.78;;;-14.16;77.08
73824;BME280;62154;54.914;73.444;2022-11-20T06:18:48;101152.09;;;-13.75;77.29
73824;BME280;62154;54.914;73.444;2022-11-20T06:21:18;101149.28;;;-13.70;77.27
73824;BME280;62154;54.914;73.444;2022-11-20T06:23:45;101149.19;;;-13.67;77.18
73824;BME280;62154;54.914;73.444;2022-11-20T06:26:19;101127.19;;;-13.74;76.99
73824;BME280;62154;54.914;73.444;2022-11-20T06:28:47;101153.44;;;-13.60;76.68
73824;BME280;62154;54.914;73.444;2022-11-20T06:31:16;101091.34;;;-13.94;75.81
73824;BME280;62154;54.914;73.444;2022-11-20T06:33:44;101128.00;;;-13.72;76.14
73824;BME280;62154;54.914;73.444;2022-11-20T06:36:13;101046.59;;;-14.12;76.15
73824;BME280;62154;54.914;73.444;2022-11-20T06:38:41;101140.97;;;-13.59;76.48
73824;BME280;62154;54.914;73.444;2022-11-20T06:41:14;101046.50;;;-14.09;76.70
73824;BME280;62154;54.914;73.444;2022-11-20T06:43:46;101047.13;;;-14.01;76.51
73824;BME280;62154;54.914;73.444;2022-11-20T06:46:15;101038.31;;;-14.03;76.71
73824;BME280;62154;54.914;73.444;2022-11-20T06:48:47;101109.56;;;-13.50;76.81
73824;BME280;62154;54.914;73.444;2022-11-20T06:51:17;101113.53;;;-13.36;77.16
73824;BME280;62154;54.914;73.444;2022-11-20T06:53:46;101117.81;;;-13.31;76.52
73824;BME280;62154;54.914;73.444;2022-11-20T06:56:15;101108.97;;;-13.33;76.28
73824;BME280;62154;54.914;73.444;2022-11-20T06:58:43;101130.75;;;-13.18;76.67
73824;BME280;62154;54.914;73.444;2022-11-20T07:01:16;101127.78;;;-13.09;76.89
73824;BME280;62154;54.914;73.444;2022-11-20T07:03:44;101134.69;;;-13.03;76.73
73824;BME280;62154;54.914;73.444;2022-11-20T07:06:11;101114.31;;;-13.06;76.88
73824;BME280;62154;54.914;73.444;2022-11-20T07:08:38;101119.31;;;-12.95;76.64
73824;BME280;62154;54.914;73.444;2022-11-20T07:11:12;101048.38;;;-13.29;76.54
73824;BME280;62154;54.914;73.444;2022-11-20T07:13:39;101111.75;;;-12.82;77.14
73824;BME280;62154;54.914;73.444;2022-11-20T07:16:11;101043.34;;;-13.12;77.24
73824;BME280;62154;54.914;73.444;2022-11-20T07:18:44;101086.59;;;-12.75;77.13
73824;BME280;62154;54.914;73.444;2022-11-20T07:21:11;101093.41;;;-12.66;76.87
73824;BME280;62154;54.914;73.444;2022-11-20T07:23:38;101085.22;;;-12.62;76.98
73824;BME280;62154;54.914;73.444;2022-11-20T07:26:11;101067.84;;;-12.73;76.99
73824;BME280;62154;54.914;73.444;2022-11-20T07:28:38;101072.09;;;-12.68;76.94
73824;BME280;62154;54.914;73.444;2022-11-20T07:31:08;101093.00;;;-12.54;76.78
73824;BME280;62154;54.914;73.444;2022-11-20T07:33:35;101093.78;;;-12.52;76.83
73824;BME280;62154;54.914;73.444;2022-11-20T07:36:03;101076.78;;;-12.49;76.96
73824;BME280;62154;54.914;73.444;2022-11-20T07:38:31;101069.75;;;-12.52;76.90
73824;BME280;62154;54.914;73.444;2022-11-20T07:40:59;101083.06;;;-12.26;77.08
73824;BME280;62154;54.914;73.444;2022-11-20T07:43:27;101093.47;;;-12.19;77.41
73824;BME280;62154;54.914;73.444;2022-11-20T07:45:58;101082.50;;;-12.11;77.60
73824;BME280;62154;54.914;73.444;2022-11-20T07:48:26;100995.00;;;-12.53;77.44
73824;BME280;62154;54.914;73.444;2022-11-20T07:50:54;100979.97;;;-12.56;77.54
73824;BME280;62154;54.914;73.444;2022-11-20T07:53:31;101050.09;;;-12.25;77.26
73824;BME280;62154;54.914;73.444;2022-11-20T07:56:01;101079.72;;;-12.08;77.54
73824;BME280;62154;54.914;73.444;2022-11-20T07:58:31;100924.31;;;-12.92;77.98
73824;BME280;62154;54.914;73.444;2022-11-20T08:01:10;101046.28;;;-12.20;77.74
73824;BME280;62154;54.914;73.444;2022-11-20T08:03:37;100907.88;;;-13.05;77.37
73824;BME280;62154;54.914;73.444;2022-11-20T08:06:04;101052.63;;;-12.22;77.92
73824;BME280;62154;54.914;73.444;2022-11-20T08:08:32;101053.84;;;-12.31;77.94
73824;BME280;62154;54.914;73.444;2022-11-20T08:11:04;101048.63;;;-12.34;77.80
73824;BME280;62154;54.914;73.444;2022-11-20T08:13:49;101048.75;;;-12.37;77.87
73824;BME280;62154;54.914;73.444;2022-11-20T08:16:35;101050.47;;;-12.36;77.92
73824;BME280;62154;54.914;73.444;2022-11-20T08:19:02;101051.22;;;-12.33;78.12
73824;BME280;62154;54.914;73.444;2022-11-20T08:21:40;100907.53;;;-13.19;77.62
73824;BME280;62154;54.914;73.444;2022-11-20T08:24:11;100961.44;;;-12.84;78.18
73824;BME280;62154;54.914;73.444;2022-11-20T08:26:39;100970.47;;;-12.88;77.96
73824;BME280;62154;54.914;73.444;2022-11-20T08:29:06;101038.06;;;-12.37;78.40
73824;BME280;62154;54.914;73.444;2022-11-20T08:31:33;101035.50;;;-12.40;78.50
73824;BME280;62154;54.914;73.444;2022-11-20T08:34:04;101016.91;;;-12.43;78.16
73824;BME280;62154;54.914;73.444;2022-11-20T08:36:33;100964.34;;;-12.67;78.34
73824;BME280;62154;54.914;73.444;2022-11-20T08:39:03;100961.78;;;-12.70;77.79
73824;BME280;62154;54.914;73.444;2022-11-20T08:41:31;101011.63;;;-12.21;77.93
73824;BME280;62154;54.914;73.444;2022-11-20T08:44:13;101027.59;;;-12.20;77.63
73824;BME280;62154;54.914;73.444;2022-11-20T08:46:48;101014.34;;;-12.23;77.45
73824;BME280;62154;54.914;73.444;2022-11-20T08:49:16;101011.50;;;-12.18;77.49
73824;BME280;62154;54.914;73.444;2022-11-20T08:51:44;100998.31;;;-12.23;77.19
73824;BME280;62154;54.914;73.444;2022-11-20T08:54:20;101010.31;;;-12.11;77.16
73824;BME280;62154;54.914;73.444;2022-11-20T08:56:51;101000.06;;;-12.22;76.25
73824;BME280;62154;54.914;73.444;2022-11-20T08:59:18;101022.53;;;-12.04;76.54
73824;BME280;62154;54.914;73.444;2022-11-20T09:01:55;101009.34;;;-12.08;76.08
73824;BME280;62154;54.914;73.444;2022-11-20T09:04:22;100954.66;;;-12.46;75.54
73824;BME280;62154;54.914;73.444;2022-11-20T09:06:54;101017.34;;;-12.08;75.47
73824;BME280;62154;54.914;73.444;2022-11-20T09:09:32;101013.69;;;-12.06;75.13
73824;BME280;62154;54.914;73.444;2022-11-20T09:12:09;100872.13;;;-12.99;74.40
73824;BME280;62154;54.914;73.444;2022-11-20T09:14:36;101021.97;;;-12.12;74.52
73824;BME280;62154;54.914;73.444;2022-11-20T09:17:12;101013.97;;;-12.12;74.96
73824;BME280;62154;54.914;73.444;2022-11-20T09:19:41;101008.34;;;-12.06;75.34
73824;BME280;62154;54.914;73.444;2022-11-20T09:22:12;101009.16;;;-12.04;75.58
73824;BME280;62154;54.914;73.444;2022-11-20T09:24:45;100911.28;;;-12.52;76.04
73824;BME280;62154;54.914;73.444;2022-11-20T09:27:19;100918.00;;;-12.42;75.97
73824;BME280;62154;54.914;73.444;2022-11-20T09:29:49;100985.69;;;-11.95;76.20
73824;BME280;62154;54.914;73.444;2022-11-20T09:32:17;100996.22;;;-11.92;76.18
73824;BME280;62154;54.914;73.444;2022-11-20T09:34:44;100991.13;;;-11.99;76.02
73824;BME280;62154;54.914;73.444;2022-11-20T09:37:11;100978.84;;;-12.03;76.48
73824;BME280;62154;54.914;73.444;2022-11-20T09:39:39;100972.78;;;-12.08;76.63
73824;BME280;62154;54.914;73.444;2022-11-20T09:45:21;100991.84;;;-12.17;77.15
73824;BME280;62154;54.914;73.444;2022-11-20T09:56:55;100991.91;;;-12.19;77.67
73824;BME280;62154;54.914;73.444;2022-11-20T09:59:46;101002.31;;;-12.11;77.89
73824;BME280;62154;54.914;73.444;2022-11-20T10:05:04;100994.78;;;-12.23;77.73
73824;BME280;62154;54.914;73.444;2022-11-20T10:13:33;101004.13;;;-12.35;77.94
73824;BME280;62154;54.914;73.444;2022-11-20T10:16:42;101014.19;;;-12.42;78.27
73824;BME280;62154;54.914;73.444;2022-11-20T10:25:01;101012.56;;;-12.46;79.06
73824;BME280;62154;54.914;73.444;2022-11-20T10:27:44;101019.75;;;-12.48;78.88
73824;BME280;62154;54.914;73.444;2022-11-20T10:30:18;100865.59;;;-13.39;78.58
73824;BME280;62154;54.914;73.444;2022-11-20T10:32:50;101014.28;;;-12.45;79.00
73824;BME280;62154;54.914;73.444;2022-11-20T10:35:35;101005.47;;;-12.47;78.58
73824;BME280;62154;54.914;73.444;2022-11-20T10:38:53;101000.22;;;-12.50;78.53
73824;BME280;62154;54.914;73.444;2022-11-20T10:41:02;100983.25;;;-12.73;78.47
73824;BME280;62154;54.914;73.444;2022-11-20T10:44:16;101004.28;;;-12.64;78.65
73824;BME280;62154;54.914;73.444;2022-11-20T10:47:04;100964.13;;;-12.86;79.27
73824;BME280;62154;54.914;73.444;2022-11-20T10:49:33;100923.19;;;-13.10;78.67
73824;BME280;62154;54.914;73.444;2022-11-20T10:55:12;100992.03;;;-12.69;78.66
73824;BME280;62154;54.914;73.444;2022-11-20T10:58:08;100954.56;;;-12.91;78.98
73824;BME280;62154;54.914;73.444;2022-11-20T11:00:47;100992.09;;;-12.71;78.86
73824;BME280;62154;54.914;73.444;2022-11-20T11:03:34;100993.13;;;-12.75;78.95
73824;BME280;62154;54.914;73.444;2022-11-20T11:09:04;100976.63;;;-12.86;79.13
73824;BME280;62154;54.914;73.444;2022-11-20T11:11:38;100977.28;;;-12.80;79.13
73824;BME280;62154;54.914;73.444;2022-11-20T11:14:13;100981.09;;;-12.87;79.20
73824;BME280;62154;54.914;73.444;2022-11-20T11:16:48;100976.84;;;-12.92;79.93
73824;BME280;62154;54.914;73.444;2022-11-20T11:19:28;100982.31;;;-12.96;79.74
73824;BME280;62154;54.914;73.444;2022-11-20T11:22:01;100969.88;;;-12.97;79.90
73824;BME280;62154;54.914;73.444;2022-11-20T11:24:37;100984.72;;;-12.89;79.99
73824;BME280;62154;54.914;73.444;2022-11-20T11:27:12;100974.41;;;-12.99;80.08
73824;BME280;62154;54.914;73.444;2022-11-20T11:29:39;100987.31;;;-12.86;80.00
73824;BME280;62154;54.914;73.444;2022-11-20T11:32:11;100977.63;;;-12.89;80.12
73824;BME280;62154;54.914;73.444;2022-11-20T11:35:24;100980.22;;;-12.87;80.22
73824;BME280;62154;54.914;73.444;2022-11-20T11:37:54;100991.59;;;-12.82;80.10
73824;BME280;62154;54.914;73.444;2022-11-20T11:40:39;100982.06;;;-12.89;80.24
73824;BME280;62154;54.914;73.444;2022-11-20T11:43:17;100980.84;;;-12.79;80.51
73824;BME280;62154;54.914;73.444;2022-11-20T11:46:30;100972.91;;;-12.82;80.49
73824;BME280;62154;54.914;73.444;2022-11-20T11:51:38;100978.31;;;-12.84;80.29
73824;BME280;62154;54.914;73.444;2022-11-20T11:54:18;100906.91;;;-13.26;80.07
73824;BME280;62154;54.914;73.444;2022-11-20T11:56:54;100967.91;;;-12.91;80.63
73824;BME280;62154;54.914;73.444;2022-11-20T11:59:54;100962.47;;;-12.88;80.65
73824;BME280;62154;54.914;73.444;2022-11-20T12:05:18;100970.38;;;-12.85;80.72
73824;BME280;62154;54.914;73.444;2022-11-20T12:08:21;100900.34;;;-13.41;80.72
73824;BME280;62154;54.914;73.444;2022-11-20T12:10:57;100966.81;;;-12.86;80.87
73824;BME280;62154;54.914;73.444;2022-11-20T12:13:58;100979.09;;;-12.80;80.76
73824;BME280;62154;54.914;73.444;2022-11-20T12:16:40;100969.31;;;-12.81;80.73
73824;BME280;62154;54.914;73.444;2022-11-20T12:19:16;100975.53;;;-12.81;80.64
73824;BME280;62154;54.914;73.444;2022-11-20T12:28:05;100965.81;;;-12.83;80.55
73824;BME280;62154;54.914;73.444;2022-11-20T12:30:24;100971.06;;;-12.80;80.92
73824;BME280;62154;54.914;73.444;2022-11-20T12:36:09;100970.94;;;-12.77;80.71
73824;BME280;62154;54.914;73.444;2022-11-20T12:48:36;100967.84;;;-12.90;80.89
73824;BME280;62154;54.914;73.444;2022-11-20T12:59:40;100971.63;;;-12.96;81.66
73824;BME280;62154;54.914;73.444;2022-11-20T13:02:26;100955.63;;;-12.96;81.23
73824;BME280;62154;54.914;73.444;2022-11-20T13:08:20;100963.78;;;-13.00;80.80
73824;BME280;62154;54.914;73.444;2022-11-20T13:11:01;100963.72;;;-12.99;80.62
73824;BME280;62154;54.914;73.444;2022-11-20T13:13:59;100996.66;;;-13.00;80.28
73824;BME280;62154;54.914;73.444;2022-11-20T13:19:27;100954.31;;;-13.09;80.16
73824;BME280;62154;54.914;73.444;2022-11-20T13:22:00;100966.59;;;-13.05;80.34
73824;BME280;62154;54.914;73.444;2022-11-20T13:24:30;100966.50;;;-13.02;80.39
73824;BME280;62154;54.914;73.444;2022-11-20T13:29:37;100976.97;;;-12.96;80.33
73824;BME280;62154;54.914;73.444;2022-11-20T13:32:19;100977.00;;;-12.97;80.14
73824;BME280;62154;54.914;73.444;2022-11-20T13:35:00;100976.09;;;-12.96;79.92
73824;BME280;62154;54.914;73.444;2022-11-20T13:37:37;100976.84;;;-12.92;80.06
73824;BME280;62154;54.914;73.444;2022-11-20T13:40:33;100979.53;;;-12.92;79.71
73824;BME280;62154;54.914;73.444;2022-11-20T13:46:07;100958.03;;;-13.13;79.24
73824;BME280;62154;54.914;73.444;2022-11-20T13:48:41;100939.91;;;-13.30;78.69
73824;BME280;62154;54.914;73.444;2022-11-20T13:51:49;100969.72;;;-13.17;78.94
73824;BME280;62154;54.914;73.444;2022-11-20T13:57:41;100974.72;;;-13.33;78.82
73824;BME280;62154;54.914;73.444;2022-11-20T14:00:19;100888.66;;;-13.89;79.02
73824;BME280;62154;54.914;73.444;2022-11-20T14:05:34;100992.00;;;-13.43;78.97
73824;BME280;62154;54.914;73.444;2022-11-20T14:08:06;100900.53;;;-13.99;78.92
73824;BME280;62154;54.914;73.444;2022-11-20T14:10:39;100882.03;;;-14.04;78.97
73824;BME280;62154;54.914;73.444;2022-11-20T14:13:19;100959.84;;;-13.66;78.83
73824;BME280;62154;54.914;73.444;2022-11-20T14:15:46;100987.22;;;-13.61;79.21
73824;BME280;62154;54.914;73.444;2022-11-20T14:18:20;100915.03;;;-14.08;78.92
73824;BME280;62154;54.914;73.444;2022-11-20T14:20:51;100950.19;;;-13.97;78.93
73824;BME280;62154;54.914;73.444;2022-11-20T14:23:28;100989.16;;;-13.92;79.11
73824;BME280;62154;54.914;73.444;2022-11-20T14:25:56;100916.50;;;-14.26;79.03